Star Alliance - SBMQ Airport Info

    SBMQ (Macapa Intl)  Login to use Map Selector

  ALLIANCE AIRCRAFT AT THIS AIRPORT
Tail Number Aircraft ModelFlightsRunwayRangeCapacityPaxSale
L-1000Embraer 110 01650ft1024nm2031Kg18No
PS-JEMEmbraer Phenom 300 03138ft1830nm500Kg9No
  RUNWAY INFORMATION    |    Airport Elevation : 56ft    |    LAT : 0.050833  /  LON : -51.0706
Runway Number 8 / 26 Runway Width 148' Runway Length 6890'
Lighted Runway No Runway StatusOpen Runway Surface Asphalt
  CLOSE ALTERNATE AIRPORTS
ICAODistanceAirport NameLongest RWRW SurfaceMAP
SNPG53NMPorto Grande Airport3609FTGrass
SNXW68NMChaves Airport3937FTGrass
SNGU94NMGurupa3281FTGrass
SBMD108NMMonte Dourado Airport5910FTAsphalt
SNVS108NMBreves Airport5249FTAsphalt
  AIRPORT WEATHER
93°F | 34°C
Temperature
50%
Humidity
29.76" | 0mb
Pressure
6sm
Visibility
MVFR
Flight Rules
BKN @ 3000ft
Initial Clouds
FAIR
Conditions
Wind Info
11/27/22 18:00Z
Updated

SBMQ 271800Z 07007KT 9999 BKN030 34/22 Q1008
  AIRPORT FREQUENCIES
NameFrequency
GROUND118.000
TOWER118.000
APPROACH119.000
DEPARTURE119.000
  PILOT ENTERED AIRPORT INFORMATION SEE ALL PILOT ENTERED AIRPORT INFO

Powered by Virtual Airlines Manager